Time;durP1;ratioP1;P1;durP2;ratioP2;P2;SDS_P1;SDS_P2;PMS_P1;PMS_P2;Temp;Humidity;BMP_temperature;BMP_pressure;BME280_temperature;BME280_humidity;BME280_pressure;Samples;Min_cycle;Max_cycle;Signal;HPM_P1;HPM_P2
2022/11/25 00:01:25;;;;;;;110.15;51.72;;;;;;;4.56;100.00;100426.56;5036025;28;20026;-78
2022/11/25 00:03:51;;;;;;;125.35;53.53;;;;;;;4.58;100.00;100420.44;5034744;28;20048;-78
2022/11/25 00:06:18;;;;;;;119.68;51.13;;;;;;;4.61;100.00;100420.31;5032990;28;20375;-77
2022/11/25 00:08:44;;;;;;;118.93;50.65;;;;;;;4.63;100.00;100414.22;5032764;28;20478;-77
2022/11/25 00:11:10;;;;;;;110.75;49.60;;;;;;;4.63;100.00;100411.38;5033809;28;20053;-78
2022/11/25 00:13:37;;;;;;;112.95;53.03;;;;;;;4.60;100.00;100413.09;5032500;28;20025;-76
2022/11/25 00:16:04;;;;;;;116.15;52.00;;;;;;;4.53;100.00;100404.78;5029705;28;20026;-76
2022/11/25 00:18:30;;;;;;;113.00;52.95;;;;;;;4.51;100.00;100410.91;5013116;28;20099;-77
2022/11/25 00:20:56;;;;;;;110.47;51.97;;;;;;;4.54;100.00;100419.75;5029924;28;20033;-78
2022/11/25 00:23:21;;;;;;;109.05;51.08;;;;;;;4.59;100.00;100422.03;5031245;28;20026;-76
2022/11/25 00:25:47;;;;;;;106.28;50.78;;;;;;;4.63;100.00;100420.66;5031020;28;20379;-76
2022/11/25 00:28:12;;;;;;;102.85;48.35;;;;;;;4.68;100.00;100422.16;5030874;28;20029;-76
2022/11/25 00:30:37;;;;;;;98.30;47.05;;;;;;;4.70;100.00;100419.66;5031744;28;20433;-77
2022/11/25 00:33:03;;;;;;;106.88;48.97;;;;;;;4.70;100.00;100423.31;5031590;28;20029;-76
2022/11/25 00:35:28;;;;;;;103.63;49.58;;;;;;;4.69;100.00;100418.88;5030262;28;20071;-77
2022/11/25 00:37:53;;;;;;;105.13;50.38;;;;;;;4.71;100.00;100426.94;5032003;28;20053;-76
2022/11/25 00:40:19;;;;;;;103.00;46.92;;;;;;;4.71;100.00;100429.75;5030501;28;20036;-77
2022/11/25 00:45:28;;;;;;;100.50;46.40;;;;;;;4.76;100.00;100432.03;5034493;28;20086;-75
2022/11/25 00:47:53;;;;;;;100.70;46.63;;;;;;;4.76;100.00;100432.78;5033687;28;20037;-77
2022/11/25 00:50:19;;;;;;;101.88;47.60;;;;;;;4.76;100.00;100434.88;5034958;28;20052;-77
2022/11/25 00:52:44;;;;;;;91.72;45.53;;;;;;;4.73;100.00;100436.53;5017187;28;20037;-77
2022/11/25 00:55:09;;;;;;;102.40;43.58;;;;;;;4.74;100.00;100431.69;5034018;28;20029;-77
2022/11/25 00:57:35;;;;;;;96.53;45.78;;;;;;;4.75;100.00;100436.09;5037270;28;20038;-78
2022/11/25 01:00:00;;;;;;;88.57;42.25;;;;;;;4.75;100.00;100428.41;5039659;28;20497;-77
2022/11/25 01:02:26;;;;;;;88.43;39.10;;;;;;;4.78;100.00;100436.00;5040247;28;20025;-77
2022/11/25 01:04:51;;;;;;;89.13;41.88;;;;;;;4.79;100.00;100437.56;5038610;28;20029;-78
2022/11/25 01:07:17;;;;;;;91.32;43.85;;;;;;;4.80;100.00;100432.72;5038021;28;20060;-78
2022/11/25 01:09:42;;;;;;;88.28;40.30;;;;;;;4.80;100.00;100447.66;5037627;28;20026;-78
2022/11/25 01:12:07;;;;;;;85.07;42.10;;;;;;;4.83;100.00;100448.78;5036931;28;20083;-77
2022/11/25 01:14:33;;;;;;;88.32;42.22;;;;;;;4.85;100.00;100444.28;5019323;28;20033;-78
2022/11/25 01:16:59;;;;;;;96.80;43.95;;;;;;;4.88;100.00;100446.19;5036127;28;20078;-76
2022/11/25 01:19:24;;;;;;;88.90;40.72;;;;;;;4.91;100.00;100445.28;5037636;28;20025;-78
2022/11/25 01:21:50;;;;;;;86.30;42.65;;;;;;;4.88;100.00;100436.91;5036575;28;20025;-77
2022/11/25 01:24:15;;;;;;;97.40;44.28;;;;;;;4.86;100.00;100440.19;5037224;28;20084;-77
2022/11/25 01:26:42;;;;;;;91.40;44.53;;;;;;;4.88;100.00;100445.41;5037230;28;20128;-77
2022/11/25 01:29:13;;;;;;;96.93;43.67;;;;;;;4.88;100.00;100440.53;5035949;28;20561;-77
2022/11/25 01:31:38;;;;;;;89.93;42.85;;;;;;;4.88;100.00;100428.41;5035727;28;20029;-76
2022/11/25 01:34:06;;;;;;;96.18;44.42;;;;;;;4.88;100.00;100431.25;5034439;28;20071;-78
2022/11/25 01:36:32;;;;;;;94.85;43.08;;;;;;;4.85;100.00;100435.00;5034424;28;20068;-76
2022/11/25 01:38:58;;;;;;;95.85;41.97;;;;;;;4.82;100.00;100436.66;5035591;28;20589;-77
2022/11/25 01:41:26;;;;;;;82.28;40.53;;;;;;;4.81;100.00;100439.94;5034378;28;20378;-77
2022/11/25 01:44:12;;;;;;;88.03;40.08;;;;;;;4.82;100.00;100447.19;5034294;28;20450;-77
2022/11/25 01:46:45;;;;;;;90.72;40.90;;;;;;;4.84;100.00;100441.88;5035776;28;20360;-77
2022/11/25 01:49:20;;;;;;;99.75;43.08;;;;;;;4.83;100.00;100449.59;5034257;28;20045;-77
2022/11/25 01:51:54;;;;;;;89.72;43.40;;;;;;;4.90;100.00;100448.59;5034325;28;20116;-77
2022/11/25 01:54:23;;;;;;;96.90;42.50;;;;;;;4.90;100.00;100446.56;5035311;28;20040;-77
2022/11/25 01:56:53;;;;;;;95.90;41.58;;;;;;;4.90;100.00;100455.03;5035744;28;20471;-76
2022/11/25 01:59:18;;;;;;;93.35;42.42;;;;;;;4.93;100.00;100453.34;5035365;28;20065;-77
2022/11/25 02:01:43;;;;;;;84.70;39.70;;;;;;;4.90;100.00;100455.03;5034885;28;20036;-77
2022/11/25 02:04:10;;;;;;;86.60;38.20;;;;;;;4.86;100.00;100442.22;5034411;28;20056;-77
2022/11/25 02:06:43;;;;;;;103.78;42.95;;;;;;;4.87;100.00;100444.59;5033125;28;20033;-77
2022/11/25 02:09:08;;;;;;;85.85;39.15;;;;;;;4.87;100.00;100436.13;5032004;28;20029;-76
2022/11/25 02:11:35;;;;;;;99.93;41.85;;;;;;;4.86;100.00;100442.22;5032261;28;20459;-76
2022/11/25 02:14:02;;;;;;;96.28;40.53;;;;;;;4.82;100.00;100439.50;5033796;28;20025;-78
2022/11/25 02:16:27;;;;;;;96.43;38.88;;;;;;;4.78;100.00;100424.66;5034096;28;20033;-77
2022/11/25 02:18:53;;;;;;;96.03;40.00;;;;;;;4.73;100.00;100433.72;5033168;28;20029;-76
2022/11/25 02:21:40;;;;;;;97.20;40.50;;;;;;;4.68;100.00;100439.13;5031209;28;20060;-77
2022/11/25 02:24:16;;;;;;;99.30;42.88;;;;;;;4.63;100.00;100437.66;5032810;28;20025;-77
2022/11/25 02:26:42;;;;;;;95.20;40.90;;;;;;;4.63;100.00;100442.50;5033028;28;20091;-77
2022/11/25 02:29:07;;;;;;;87.72;38.53;;;;;;;4.59;100.00;100436.16;5015112;28;20486;-76
2022/11/25 02:31:33;;;;;;;104.03;45.20;;;;;;;4.59;100.00;100439.00;5015028;28;20025;-76
2022/11/25 02:33:58;;;;;;;94.22;41.70;;;;;;;4.59;100.00;100450.31;5033966;28;20497;-77
2022/11/25 02:36:23;;;;;;;100.30;44.72;;;;;;;4.59;100.00;100444.66;5034687;28;20359;-77
2022/11/25 02:38:55;;;;;;;103.25;47.60;;;;;;;4.58;100.00;100448.72;5034923;28;20379;-76
2022/11/25 02:41:20;;;;;;;123.25;48.95;;;;;;;4.61;100.00;100459.94;5033488;28;20033;-77
2022/11/25 02:43:46;;;;;;;109.03;46.78;;;;;;;4.64;100.00;100459.06;5034434;28;20550;-77
2022/11/25 02:46:16;;;;;;;111.40;50.47;;;;;;;4.63;100.00;100454.63;5033189;28;20036;-77
2022/11/25 02:48:42;;;;;;;103.63;48.08;;;;;;;4.62;100.00;100455.06;5016508;28;20075;-77
2022/11/25 02:51:10;;;;;;;103.80;47.92;;;;;;;4.61;100.00;100459.16;5016500;28;20029;-77
2022/11/25 02:53:35;;;;;;;108.18;49.92;;;;;;;4.62;100.00;100458.69;5033838;28;20506;-77
2022/11/25 02:56:01;;;;;;;112.50;49.72;;;;;;;4.61;100.00;100447.84;5033336;28;20025;-77
2022/11/25 02:58:27;;;;;;;100.50;46.47;;;;;;;4.60;100.00;100454.75;5034426;28;20418;-77
2022/11/25 03:00:52;;;;;;;93.43;44.97;;;;;;;4.59;100.00;100453.16;5034210;28;20373;-77
2022/11/25 03:03:17;;;;;;;101.60;50.38;;;;;;;4.60;100.00;100457.56;5032885;28;20450;-77
2022/11/25 03:05:43;;;;;;;99.50;47.10;;;;;;;4.61;100.00;100457.09;5034120;28;20025;-76
2022/11/25 03:08:09;;;;;;;108.75;50.05;;;;;;;4.57;100.00;100456.41;5034183;28;20471;-78
2022/11/25 03:10:35;;;;;;;111.50;49.50;;;;;;;4.60;100.00;100458.38;5033816;28;20029;-76
2022/11/25 03:13:00;;;;;;;111.05;49.70;;;;;;;4.55;100.00;100466.59;5032675;28;20037;-77
2022/11/25 03:15:26;;;;;;;100.43;48.80;;;;;;;4.55;100.00;100463.78;5033657;28;20029;-76
2022/11/25 03:17:52;;;;;;;101.95;47.88;;;;;;;4.54;100.00;100467.84;5033725;28;20110;-76
2022/11/25 03:20:18;;;;;;;95.20;47.08;;;;;;;4.57;100.00;100470.56;5033426;28;20533;-77
2022/11/25 03:22:43;;;;;;;102.43;48.13;;;;;;;4.56;100.00;100463.34;5032399;28;20425;-77
2022/11/25 03:25:10;;;;;;;103.63;47.65;;;;;;;4.57;100.00;100464.09;5033943;28;20025;-76
2022/11/25 03:27:36;;;;;;;92.80;44.33;;;;;;;4.59;100.00;100462.44;5032523;28;20059;-77
2022/11/25 03:30:04;;;;;;;97.85;46.22;;;;;;;4.58;100.00;100466.50;5033368;28;20482;-77
2022/11/25 03:32:30;;;;;;;95.85;42.92;;;;;;;4.61;100.00;100459.16;5032230;28;20076;-76
2022/11/25 03:34:55;;;;;;;99.93;43.95;;;;;;;4.63;100.00;100467.97;5015862;28;20025;-77
2022/11/25 03:37:20;;;;;;;99.78;44.22;;;;;;;4.65;100.00;100466.31;5015777;28;20025;-77
2022/11/25 03:39:46;;;;;;;98.28;44.05;;;;;;;4.66;100.00;100467.88;5015805;28;20108;-77
2022/11/25 03:42:11;;;;;;;90.15;42.47;;;;;;;4.68;100.00;100471.06;5032317;28;20028;-77
2022/11/25 03:44:36;;;;;;;94.18;41.83;;;;;;;4.71;100.00;100469.38;5033657;28;20022;-78
2022/11/25 03:47:02;;;;;;;91.43;42.83;;;;;;;4.72;100.00;100468.91;5033405;28;20425;-77
2022/11/25 03:49:27;;;;;;;94.05;43.75;;;;;;;4.73;100.00;100479.00;5033366;28;20034;-77
2022/11/25 03:51:53;;;;;;;88.47;41.90;;;;;;;4.75;100.00;100472.91;5033632;28;20432;-77
2022/11/25 03:54:18;;;;;;;97.55;44.17;;;;;;;4.74;100.00;100480.59;5033607;28;20149;-77
2022/11/25 03:56:43;;;;;;;94.50;43.28;;;;;;;4.72;100.00;100476.59;5035455;28;20025;-77
2022/11/25 03:59:09;;;;;;;98.32;42.65;;;;;;;4.72;100.00;100480.22;5036307;28;20021;-77
2022/11/25 04:01:34;;;;;;;100.82;44.05;;;;;;;4.69;100.00;100474.69;5035008;28;20068;-77
2022/11/25 04:03:59;;;;;;;87.22;41.72;;;;;;;4.71;100.00;100480.69;5035898;28;20367;-77
2022/11/25 04:06:25;;;;;;;87.30;42.72;;;;;;;4.73;100.00;100481.03;5033640;28;20033;-77
2022/11/25 04:08:50;;;;;;;89.10;42.63;;;;;;;4.76;100.00;100480.16;5035031;28;20048;-77
2022/11/25 04:11:16;;;;;;;96.65;43.05;;;;;;;4.77;100.00;100484.53;5033855;28;20022;-77
2022/11/25 04:13:41;;;;;;;91.47;41.67;;;;;;;4.79;100.00;100471.56;5031992;28;20034;-77
2022/11/25 04:16:19;;;;;;;94.00;45.70;;;;;;;4.82;100.00;100484.78;5033444;28;20021;-77
2022/11/25 04:18:44;;;;;;;84.97;41.28;;;;;;;4.85;100.00;100480.28;5033540;28;20025;-77
2022/11/25 04:21:09;;;;;;;89.07;41.47;;;;;;;4.86;100.00;100479.00;5033634;28;20028;-78
2022/11/25 04:23:35;;;;;;;85.32;39.65;;;;;;;4.87;100.00;100478.56;5033584;28;20026;-78
2022/11/25 04:26:00;;;;;;;90.07;42.25;;;;;;;4.87;100.00;100483.44;5033305;28;20466;-78
2022/11/25 04:28:26;;;;;;;83.32;40.67;;;;;;;4.88;100.00;100485.84;5033087;28;20021;-78
2022/11/25 04:30:51;;;;;;;91.10;42.17;;;;;;;4.89;100.00;100483.81;5033034;28;20025;-78
2022/11/25 04:33:16;;;;;;;88.63;41.42;;;;;;;4.88;100.00;100483.00;5036311;28;20033;-78
2022/11/25 04:35:42;;;;;;;79.78;40.08;;;;;;;4.88;100.00;100483.00;5037309;28;20024;-78
2022/11/25 04:38:07;;;;;;;86.40;40.67;;;;;;;4.86;100.00;100482.66;5037281;28;20026;-77
2022/11/25 04:40:32;;;;;;;79.20;40.08;;;;;;;4.85;100.00;100483.13;5037510;28;20027;-78
2022/11/25 04:42:58;;;;;;;81.50;41.65;;;;;;;4.83;100.00;100479.94;5035626;28;20539;-77
2022/11/25 04:45:23;;;;;;;85.80;41.72;;;;;;;4.78;100.00;100478.44;5036994;28;20552;-77
2022/11/25 04:47:48;;;;;;;85.82;41.60;;;;;;;4.78;100.00;100486.13;5036999;28;20370;-76
2022/11/25 04:50:17;;;;;;;90.70;44.25;;;;;;;4.77;100.00;100488.19;5036394;28;20053;-77
2022/11/25 04:52:43;;;;;;;89.78;44.20;;;;;;;4.78;100.00;100480.47;5036616;28;20025;-77
2022/11/25 04:55:09;;;;;;;85.88;40.80;;;;;;;4.74;100.00;100486.25;5036678;28;20382;-78
2022/11/25 04:57:34;;;;;;;89.07;41.30;;;;;;;4.76;100.00;100477.31;5035404;28;20017;-77
2022/11/25 04:59:59;;;;;;;84.97;41.65;;;;;;;4.77;100.00;100481.72;5038323;28;20022;-77
2022/11/25 05:02:26;;;;;;;77.97;39.05;;;;;;;4.76;100.00;100480.16;5036776;28;20021;-78
2022/11/25 05:04:54;;;;;;;88.18;43.30;;;;;;;4.72;100.00;100497.22;5038124;28;20029;-78
2022/11/25 05:07:21;;;;;;;81.47;41.47;;;;;;;4.73;100.00;100495.19;5036583;28;20540;-76
2022/11/25 05:09:46;;;;;;;86.18;38.15;;;;;;;4.70;100.00;100493.25;5036548;28;20033;-78
2022/11/25 05:12:17;;;;;;;80.53;39.40;;;;;;;4.78;100.00;100492.59;5036332;28;20109;-77
2022/11/25 05:14:43;;;;;;;87.65;39.10;;;;;;;4.81;100.00;100496.56;5036225;28;20026;-77
2022/11/25 05:17:13;;;;;;;84.28;37.95;;;;;;;4.86;100.00;100499.63;5036348;28;20032;-78
2022/11/25 05:19:39;;;;;;;70.90;36.90;;;;;;;4.87;100.00;100498.41;5035238;28;20032;-77
2022/11/25 05:22:04;;;;;;;75.50;39.50;;;;;;;4.87;100.00;100492.72;5036396;28;20112;-77
2022/11/25 05:24:30;;;;;;;77.00;37.83;;;;;;;4.90;100.00;100502.38;5036063;28;20099;-78
2022/11/25 05:26:55;;;;;;;81.28;40.45;;;;;;;4.90;100.00;100499.53;5036354;28;20079;-78
2022/11/25 05:29:20;;;;;;;78.75;38.67;;;;;;;4.89;100.00;100500.78;5034589;28;20083;-77
2022/11/25 05:31:46;;;;;;;80.35;39.05;;;;;;;4.93;100.00;100499.44;5035546;28;20033;-78
2022/11/25 05:34:13;;;;;;;82.53;40.40;;;;;;;4.90;100.00;100502.38;5035808;28;20474;-78
2022/11/25 05:36:41;;;;;;;83.50;39.47;;;;;;;4.84;100.00;100515.50;5035822;28;20032;-77
2022/11/25 05:39:08;;;;;;;81.70;41.15;;;;;;;4.82;100.00;100515.13;5035782;28;20497;-77
2022/11/25 05:41:36;;;;;;;88.45;41.10;;;;;;;4.82;100.00;100521.59;5036105;28;20482;-77
2022/11/25 05:44:02;;;;;;;86.75;42.25;;;;;;;4.82;100.00;100523.63;5035575;28;20355;-77
2022/11/25 05:46:28;;;;;;;118.20;59.65;;;;;;;4.78;100.00;100529.41;5036046;28;20425;-77
2022/11/25 05:48:54;;;;;;;106.57;52.60;;;;;;;4.73;100.00;100529.16;5036055;28;20045;-76
2022/11/25 05:51:20;;;;;;;107.65;52.03;;;;;;;4.68;100.00;100536.16;5042265;28;20465;-75
2022/11/25 05:53:48;;;;;;;109.72;51.20;;;;;;;4.67;100.00;100526.06;5053225;28;20409;-74
2022/11/25 05:56:15;;;;;;;98.47;48.15;;;;;;;4.68;100.00;100544.66;5037390;28;20121;-73
2022/11/25 05:58:43;;;;;;;105.40;48.55;;;;;;;4.71;100.00;100543.75;5037388;28;20036;-73
2022/11/25 06:01:17;;;;;;;98.57;49.05;;;;;;;4.72;100.00;100536.03;5037251;28;20035;-73
2022/11/25 06:03:44;;;;;;;100.93;47.35;;;;;;;4.71;100.00;100545.81;5055184;28;20032;-72
2022/11/25 06:06:10;;;;;;;110.15;50.28;;;;;;;4.68;100.00;100552.34;5054571;28;20059;-72
2022/11/25 06:08:37;;;;;;;111.20;50.08;;;;;;;4.66;100.00;100549.94;5053792;28;20044;-73
2022/11/25 06:11:08;;;;;;;100.57;50.38;;;;;;;4.66;100.00;100549.94;5047159;28;20087;-73
2022/11/25 06:13:33;;;;;;;105.60;50.43;;;;;;;4.64;100.00;100552.44;5053440;28;20037;-73
2022/11/25 06:15:59;;;;;;;106.63;53.90;;;;;;;4.63;100.00;100555.72;5054707;28;20039;-75
2022/11/25 06:18:24;;;;;;;105.85;48.92;;;;;;;4.64;100.00;100545.97;5053120;28;20051;-73
2022/11/25 06:20:59;;;;;;;113.25;49.80;;;;;;;4.65;100.00;100545.53;5049963;28;20044;-74
2022/11/25 06:23:25;;;;;;;101.20;48.22;;;;;;;4.64;100.00;100551.66;5052515;28;20055;-74
2022/11/25 06:25:52;;;;;;;110.75;48.53;;;;;;;4.61;100.00;100550.50;5020439;28;20028;-73
2022/11/25 06:28:18;;;;;;;98.45;46.42;;;;;;;4.61;100.00;100564.63;5053292;28;20033;-75
2022/11/25 06:30:43;;;;;;;99.65;45.40;;;;;;;4.65;100.00;100565.34;5052314;28;20371;-73
2022/11/25 06:33:08;;;;;;;106.03;46.72;;;;;;;4.67;100.00;100568.53;5051902;28;20640;-74
2022/11/25 06:35:34;;;;;;;103.47;47.35;;;;;;;4.73;100.00;100560.28;5053353;28;20029;-74
2022/11/25 06:38:00;;;;;;;96.97;47.85;;;;;;;4.77;100.00;100572.28;5035273;28;20029;-75
2022/11/25 06:40:25;;;;;;;102.03;47.63;;;;;;;4.80;100.00;100577.88;5053124;28;20029;-74
2022/11/25 06:42:50;;;;;;;104.00;46.80;;;;;;;4.85;100.00;100570.88;5052983;28;20469;-74
2022/11/25 06:45:16;;;;;;;96.55;46.50;;;;;;;4.84;100.00;100566.44;5052502;28;20374;-74
2022/11/25 06:47:42;;;;;;;102.97;46.72;;;;;;;4.86;100.00;100570.41;5052858;28;20108;-75
2022/11/25 06:50:07;;;;;;;93.60;44.78;;;;;;;4.86;100.00;100567.56;5052482;28;20474;-74
2022/11/25 06:52:33;;;;;;;110.07;47.65;;;;;;;4.87;100.00;100572.00;5052506;28;20139;-75
2022/11/25 06:54:58;;;;;;;105.05;45.92;;;;;;;4.83;100.00;100562.81;5051680;28;20029;-74
2022/11/25 06:57:24;;;;;;;92.13;46.05;;;;;;;4.86;100.00;100578.91;5051775;28;20033;-75
2022/11/25 06:59:50;;;;;;;95.93;44.47;;;;;;;4.89;100.00;100572.38;5051789;28;20029;-75
2022/11/25 07:02:15;;;;;;;94.85;42.85;;;;;;;4.90;100.00;100576.78;5051875;28;20048;-74
2022/11/25 07:04:41;;;;;;;88.40;42.03;;;;;;;4.92;100.00;100577.13;5051987;28;20029;-74
2022/11/25 07:07:06;;;;;;;97.85;43.60;;;;;;;4.93;100.00;100573.06;5050812;28;20108;-75
2022/11/25 07:09:31;;;;;;;88.78;43.70;;;;;;;5.00;100.00;100574.91;5051668;28;20029;-75
2022/11/25 07:11:57;;;;;;;83.15;39.90;;;;;;;5.04;100.00;100578.41;5053931;28;20036;-74
2022/11/25 07:14:22;;;;;;;90.70;43.95;;;;;;;5.09;100.00;100580.69;5053909;28;20477;-75
2022/11/25 07:16:47;;;;;;;96.47;43.10;;;;;;;5.15;100.00;100583.78;5053822;28;20033;-74
2022/11/25 07:19:15;;;;;;;90.55;43.65;;;;;;;5.22;100.00;100580.72;5053520;28;20029;-74
2022/11/25 07:21:42;;;;;;;93.25;43.40;;;;;;;5.24;100.00;100586.75;5053393;28;20485;-74
2022/11/25 07:24:09;;;;;;;100.43;44.20;;;;;;;5.33;100.00;100590.50;5053692;28;20029;-73
2022/11/25 07:26:37;;;;;;;95.95;44.40;;;;;;;5.41;100.00;100593.13;5053624;28;20051;-73
2022/11/25 07:29:05;;;;;;;96.65;42.75;;;;;;;5.49;100.00;100591.66;5053695;28;20108;-74
2022/11/25 07:31:36;;;;;;;91.93;41.03;;;;;;;5.53;100.00;100592.34;5053539;28;20036;-74
2022/11/25 07:34:04;;;;;;;98.72;43.63;;;;;;;5.57;100.00;100590.19;5053649;28;20099;-74
2022/11/25 07:36:31;;;;;;;95.47;44.53;;;;;;;5.62;100.00;100590.44;5053517;28;20029;-75
2022/11/25 07:38:58;;;;;;;100.78;43.40;;;;;;;5.69;100.00;100595.91;5035452;28;20025;-74
2022/11/25 07:41:25;;;;;;;91.22;44.00;;;;;;;5.77;100.00;100600.09;5052203;28;20025;-73
2022/11/25 07:43:59;;;;;;;98.75;43.15;;;;;;;5.87;100.00;100595.31;5035491;28;20025;-74
2022/11/25 07:46:30;;;;;;;103.18;42.05;;;;;;;5.98;100.00;100592.94;5053025;28;20029;-74
2022/11/25 07:48:58;;;;;;;110.87;44.43;;;;;;;6.02;100.00;100590.00;5053239;28;20124;-74
2022/11/25 07:51:34;;;;;;;116.72;44.75;;;;;;;6.02;100.00;100599.31;5053249;28;20025;-75
2022/11/25 07:54:02;;;;;;;112.18;45.00;;;;;;;5.99;100.00;100600.19;5053261;28;20037;-75
2022/11/25 07:56:28;;;;;;;108.95;44.00;;;;;;;6.01;100.00;100592.03;5053432;28;20131;-75
2022/11/25 07:58:54;;;;;;;111.35;44.05;;;;;;;6.07;100.00;100597.94;5053339;28;20433;-74
2022/11/25 08:01:20;;;;;;;113.63;44.28;;;;;;;6.12;100.00;100597.38;5052858;28;20014;-73
2022/11/25 08:03:47;;;;;;;98.65;41.75;;;;;;;6.21;100.00;100597.47;5053444;28;20017;-74
2022/11/25 08:06:16;;;;;;;111.68;42.25;;;;;;;6.33;100.00;100599.53;5054762;28;20374;-74
2022/11/25 08:08:43;;;;;;;91.97;42.65;;;;;;;6.44;100.00;100605.63;5057086;28;20025;-74
2022/11/25 08:11:11;;;;;;;112.47;42.75;;;;;;;6.53;100.00;100611.41;5057270;28;20059;-75
2022/11/25 08:13:36;;;;;;;109.72;41.00;;;;;;;6.57;100.00;100609.25;5055722;28;20111;-75
2022/11/25 08:16:02;;;;;;;103.22;41.88;;;;;;;6.57;100.00;100609.25;5057434;28;20166;-75
2022/11/25 08:18:27;;;;;;;139.95;46.15;;;;;;;6.55;100.00;100605.25;5057198;28;20040;-74
2022/11/25 08:21:01;;;;;;;123.97;44.35;;;;;;;6.57;100.00;100605.63;5056947;28;20036;-75
2022/11/25 08:23:26;;;;;;;142.75;46.25;;;;;;;6.58;100.00;100612.88;5055821;28;20150;-74
2022/11/25 08:25:52;;;;;;;92.80;41.40;;;;;;;6.57;100.00;100614.94;5056658;28;20072;-74
2022/11/25 08:28:17;;;;;;;94.63;41.63;;;;;;;6.56;100.00;100606.84;5057196;28;20033;-74
2022/11/25 08:30:43;;;;;;;85.65;39.90;;;;;;;6.52;100.00;100615.50;5055618;28;20025;-75
2022/11/25 08:33:08;;;;;;;89.18;40.60;;;;;;;6.48;100.00;100608.38;5056747;28;20155;-75
2022/11/25 08:35:36;;;;;;;89.38;39.15;;;;;;;6.52;100.00;100606.19;5055603;28;20390;-75
2022/11/25 08:38:04;;;;;;;93.28;40.33;;;;;;;6.48;100.00;100603.47;5056086;28;20020;-75
2022/11/25 08:40:30;;;;;;;86.07;40.70;;;;;;;6.44;100.00;100605.63;5055587;28;20355;-75
2022/11/25 08:42:56;;;;;;;83.60;40.63;;;;;;;6.49;100.00;100605.03;5056704;28;20021;-74
2022/11/25 08:45:24;;;;;;;82.18;38.17;;;;;;;6.60;100.00;100599.81;5056492;28;20036;-74
2022/11/25 08:47:50;;;;;;;84.20;37.67;;;;;;;6.82;100.00;100605.53;5055191;28;20028;-77
2022/11/25 08:50:17;;;;;;;79.25;37.78;;;;;;;7.10;100.00;100615.06;5055529;28;20553;-78
2022/11/25 08:53:03;;;;;;;84.20;36.70;;;;;;;7.46;100.00;100618.19;5056836;28;20474;-79
2022/11/25 08:55:28;;;;;;;83.32;37.40;;;;;;;7.81;100.00;100615.25;5055030;28;20036;-79
2022/11/25 08:57:54;;;;;;;72.55;36.22;;;;;;;8.08;100.00;100612.50;5056663;28;20017;-78
2022/11/25 09:00:20;;;;;;;70.82;33.35;;;;;;;8.35;100.00;100609.78;5055621;28;20083;-77
2022/11/25 09:02:46;;;;;;;66.22;31.20;;;;;;;8.59;100.00;100621.41;5056394;28;20025;-77
2022/11/25 09:05:19;;;;;;;84.07;34.95;;;;;;;8.76;100.00;100616.19;5056302;28;20029;-78
2022/11/25 09:07:45;;;;;;;73.28;33.80;;;;;;;8.93;100.00;100622.38;5056313;28;20085;-79
2022/11/25 09:10:14;;;;;;;57.78;30.98;;;;;;;9.01;100.00;100620.81;5056697;28;20041;-78
2022/11/25 09:12:41;;;;;;;58.50;29.40;;;;;;;9.11;100.00;100623.19;5056235;28;20036;-80
2022/11/25 09:15:07;;;;;;;62.53;30.00;;;;;;;9.20;100.00;100626.03;5055487;28;20025;-80
2022/11/25 09:17:36;;;;;;;62.80;28.83;;;;;;;9.23;100.00;100627.16;5055650;28;20049;-79
2022/11/25 09:20:04;;;;;;;72.60;29.38;;;;;;;9.18;100.00;100625.72;5056031;28;20017;-78
2022/11/25 09:22:31;;;;;;;60.78;27.83;;;;;;;9.13;100.00;100623.50;5038439;28;20044;-78
2022/11/25 09:24:57;;;;;;;60.38;29.20;;;;;;;9.12;100.00;100621.13;5054851;28;20100;-78
2022/11/25 09:27:23;;;;;;;60.50;30.85;;;;;;;9.12;100.00;100621.91;5054566;28;20117;-77
2022/11/25 09:29:49;;;;;;;60.08;30.35;;;;;;;9.12;100.00;100623.97;5056621;28;20120;-75
2022/11/25 09:32:15;;;;;;;55.90;28.38;;;;;;;9.09;100.00;100616.38;5055916;28;20041;-77
2022/11/25 09:34:42;;;;;;;59.33;28.95;;;;;;;9.05;100.00;100618.63;5055655;28;20108;-77
2022/11/25 09:37:07;;;;;;;54.42;28.23;;;;;;;9.02;100.00;100617.50;5054470;28;20020;-77
2022/11/25 09:39:34;;;;;;;54.55;26.42;;;;;;;8.97;100.00;100609.56;5055838;28;20048;-78
2022/11/25 09:49:17;;;;;;;59.92;27.23;;;;;;;9.06;100.00;100603.88;5053346;28;20055;-77
2022/11/25 09:52:17;;;;;;;52.95;26.58;;;;;;;9.17;100.00;100600.53;5053339;28;20040;-78
2022/11/25 09:55:04;;;;;;;59.33;25.08;;;;;;;9.25;100.00;100599.72;5055435;28;20029;-77
2022/11/25 09:58:09;;;;;;;50.78;26.02;;;;;;;9.42;100.00;100602.25;5054078;28;20033;-78
2022/11/25 10:00:45;;;;;;;53.63;25.60;;;;;;;9.54;100.00;100604.16;5055776;28;20029;-77
2022/11/25 10:03:19;;;;;;;48.33;24.60;;;;;;;9.58;100.00;100599.06;5037659;28;20043;-78
2022/11/25 10:06:15;;;;;;;54.17;26.40;;;;;;;9.63;100.00;100587.78;5055399;28;20040;-77
2022/11/25 10:08:46;;;;;;;44.28;22.95;;;;;;;9.69;100.00;100585.84;5055167;28;20075;-76
2022/11/25 10:11:38;;;;;;;43.63;23.27;;;;;;;9.66;100.00;100591.75;5037763;28;20033;-76
2022/11/25 10:14:31;;;;;;;43.60;22.58;;;;;;;9.56;100.00;100590.19;5055092;28;20052;-77
2022/11/25 10:17:02;;;;;;;43.67;22.88;;;;;;;9.48;100.00;100589.72;5055245;28;20029;-77
2022/11/25 10:19:40;;;;;;;43.75;20.63;;;;;;;9.31;100.00;100590.53;5053866;28;20035;-77
2022/11/25 10:22:36;;;;;;;39.95;20.10;;;;;;;9.15;100.00;100601.00;5054987;28;20440;-77
2022/11/25 10:25:17;;;;;;;40.65;21.33;;;;;;;8.95;100.00;100603.56;5054242;28;20037;-77
2022/11/25 10:27:54;;;;;;;46.42;23.25;;;;;;;8.83;100.00;100599.59;5055037;28;20473;-76
2022/11/25 10:30:22;;;;;;;43.88;21.88;;;;;;;8.84;100.00;100600.38;5052835;28;20025;-76
2022/11/25 10:33:23;;;;;;;38.70;20.33;;;;;;;8.82;100.00;100603.69;5053399;28;20514;-78
2022/11/25 10:35:59;;;;;;;45.90;21.55;;;;;;;8.87;100.00;100602.28;5054722;28;20025;-78
2022/11/25 10:39:04;;;;;;;40.38;20.83;;;;;;;8.95;100.00;100597.88;5053397;28;20520;-76
2022/11/25 10:42:06;;;;;;;37.00;18.70;;;;;;;9.02;100.00;100608.94;5132503;27;20128;-78
2022/11/25 10:44:50;;;;;;;42.95;19.33;;;;;;;9.18;100.00;100608.63;5132090;28;20046;-77
2022/11/25 10:47:30;;;;;;;39.38;19.63;;;;;;;9.39;100.00;100606.06;5131830;28;20028;-78
2022/11/25 10:50:18;;;;;;;35.65;18.52;;;;;;;9.62;100.00;100613.94;5132114;28;20031;-78
2022/11/25 10:53:01;;;;;;;35.78;18.80;;;;;;;9.79;100.00;100600.91;5131891;28;20035;-78
2022/11/25 10:55:32;;;;;;;42.38;19.17;;;;;;;9.93;100.00;100588.84;5113479;28;20072;-76
2022/11/25 11:07:06;;;;;;;37.33;19.52;;;;;;;9.11;100.00;100617.47;5091469;27;20824;-76
2022/11/25 11:09:35;;;;;;;36.78;18.35;;;;;;;9.16;100.00;100613.19;5106932;28;20047;-77
2022/11/25 11:12:23;;;;;;;38.10;17.02;;;;;;;9.26;100.00;100614.78;5091292;28;20051;-78
2022/11/25 11:15:14;;;;;;;37.00;18.08;;;;;;;9.42;100.00;100610.81;5091167;28;20376;-77
2022/11/25 11:17:41;;;;;;;36.22;18.23;;;;;;;9.61;100.00;100609.50;5123772;28;20028;-78
2022/11/25 11:20:07;;;;;;;30.95;16.55;;;;;;;9.66;100.00;100615.38;5091103;28;20065;-77
2022/11/25 11:22:35;;;;;;;35.88;17.85;;;;;;;9.77;100.00;100614.09;5091302;28;20048;-79
2022/11/25 11:25:15;;;;;;;31.80;17.65;;;;;;;9.80;100.00;100613.91;5089666;28;20039;-79
2022/11/25 11:27:43;;;;;;;36.67;17.55;;;;;;;9.88;100.00;100614.38;5090958;28;20111;-80
2022/11/25 11:30:22;;;;;;;33.15;17.77;;;;;;;9.97;100.00;100600.06;5090845;28;20408;-80
2022/11/25 11:33:26;;;;;;;41.65;16.77;;;;;;;10.08;100.00;100603.22;5090826;28;20112;-77